createdAt,value
2022-07-29T00:02:00.864Z,13.91
2022-07-29T00:04:47.169Z,13.81
2022-07-29T00:07:34.132Z,13.76
2022-07-29T00:10:20.688Z,13.76
2022-07-29T00:13:07.298Z,13.74
2022-07-29T00:15:53.559Z,13.71
2022-07-29T00:18:40.064Z,13.72
2022-07-29T00:21:26.081Z,13.76
2022-07-29T00:24:12.781Z,13.78
2022-07-29T00:26:59.301Z,13.78
2022-07-29T00:29:46.590Z,13.79
2022-07-29T00:32:32.490Z,13.78
2022-07-29T00:35:36.908Z,13.83
2022-07-29T00:38:23.895Z,13.84
2022-07-29T00:41:09.635Z,13.88
2022-07-29T00:43:59.416Z,13.92
2022-07-29T00:46:46.000Z,13.98
2022-07-29T00:49:34.073Z,13.98
2022-07-29T00:52:25.814Z,14.00
2022-07-29T00:55:13.972Z,13.98
2022-07-29T00:58:00.366Z,13.98
2022-07-29T01:00:46.879Z,14.00
2022-07-29T01:03:33.482Z,14.03
2022-07-29T01:06:20.524Z,14.04
2022-07-29T01:09:07.586Z,14.09
2022-07-29T01:11:54.079Z,14.13
2022-07-29T01:14:41.212Z,14.20
2022-07-29T01:17:52.608Z,14.33
2022-07-29T01:20:59.124Z,14.47
2022-07-29T01:23:56.998Z,14.57
2022-07-29T01:26:46.200Z,14.71
2022-07-29T01:29:45.384Z,14.84
2022-07-29T01:32:36.247Z,14.97
2022-07-29T01:35:40.119Z,15.09
2022-07-29T01:38:28.799Z,15.22
2022-07-29T01:41:18.155Z,15.31
2022-07-29T01:44:13.470Z,15.41
2022-07-29T01:47:06.731Z,15.48
2022-07-29T01:49:57.284Z,15.55
2022-07-29T01:52:52.913Z,15.65
2022-07-29T01:55:46.584Z,15.73
2022-07-29T01:58:33.716Z,15.80
2022-07-29T02:01:23.624Z,15.87
2022-07-29T02:04:11.748Z,15.92
2022-07-29T02:07:21.724Z,15.96
2022-07-29T02:10:09.671Z,16.01
2022-07-29T02:12:57.764Z,16.05
2022-07-29T02:15:46.696Z,16.09
2022-07-29T02:18:34.144Z,16.14
2022-07-29T02:21:25.512Z,16.16
2022-07-29T02:24:13.756Z,16.16
2022-07-29T02:27:02.649Z,16.18
2022-07-29T02:29:51.364Z,16.21
2022-07-29T02:32:40.253Z,16.23
2022-07-29T02:35:34.862Z,16.25
2022-07-29T02:38:41.327Z,16.27
2022-07-29T02:41:33.897Z,16.29
2022-07-29T02:44:22.587Z,16.31
2022-07-29T02:47:19.594Z,16.30
2022-07-29T02:50:14.785Z,16.31
2022-07-29T02:53:13.612Z,16.33
2022-07-29T02:56:02.657Z,16.35
2022-07-29T02:58:56.294Z,16.35
2022-07-29T03:01:49.268Z,16.36
2022-07-29T03:04:42.690Z,16.35
2022-07-29T03:07:29.962Z,16.37
2022-07-29T03:10:16.791Z,16.38
2022-07-29T03:13:05.456Z,16.41
2022-07-29T03:15:52.902Z,16.42
2022-07-29T03:18:40.095Z,16.43
2022-07-29T03:21:27.614Z,16.47
2022-07-29T03:24:34.752Z,16.50
2022-07-29T03:27:20.885Z,16.56
2022-07-29T03:30:08.900Z,16.58
2022-07-29T03:32:56.585Z,16.60
2022-07-29T03:35:45.656Z,16.62
2022-07-29T03:38:35.353Z,16.65
2022-07-29T03:41:23.261Z,16.68
2022-07-29T03:44:10.442Z,16.73
2022-07-29T03:47:02.218Z,16.76
2022-07-29T03:49:51.161Z,16.80
2022-07-29T03:52:36.977Z,16.82
2022-07-29T03:55:22.941Z,16.83
2022-07-29T03:58:11.008Z,16.84
2022-07-29T04:00:57.973Z,16.87
2022-07-29T04:03:45.786Z,16.90
2022-07-29T04:06:42.637Z,16.91
2022-07-29T04:09:28.556Z,16.93
2022-07-29T04:12:14.622Z,16.97
2022-07-29T04:15:01.839Z,17.02
2022-07-29T04:17:48.040Z,17.05
2022-07-29T04:20:34.845Z,17.10
2022-07-29T04:23:20.960Z,17.14
2022-07-29T04:26:09.876Z,17.18
2022-07-29T04:28:57.576Z,17.24
2022-07-29T04:31:43.261Z,17.30
2022-07-29T04:34:30.993Z,17.37
2022-07-29T04:37:16.888Z,17.44
2022-07-29T04:40:03.079Z,17.52
2022-07-29T04:42:49.534Z,17.63
2022-07-29T04:45:35.445Z,17.75
2022-07-29T04:48:26.728Z,17.88
2022-07-29T04:51:15.756Z,18.02
2022-07-29T04:54:02.315Z,18.15
2022-07-29T04:56:48.832Z,18.27
2022-07-29T04:59:35.876Z,18.41
2022-07-29T05:02:22.587Z,18.52
2022-07-29T05:05:09.137Z,18.58
2022-07-29T05:07:56.101Z,18.65
2022-07-29T05:10:43.264Z,18.74
2022-07-29T05:13:30.041Z,18.79
2022-07-29T05:16:33.841Z,18.89
2022-07-29T05:19:20.644Z,18.95
2022-07-29T05:22:06.575Z,19.05
2022-07-29T05:24:52.737Z,19.13
2022-07-29T05:27:39.012Z,19.21
2022-07-29T05:30:25.331Z,19.25
2022-07-29T05:33:34.902Z,19.34
2022-07-29T05:36:18.702Z,19.49
2022-07-29T05:39:04.598Z,19.63
2022-07-29T05:41:52.128Z,19.79
2022-07-29T05:44:40.334Z,20.00
2022-07-29T05:47:26.424Z,20.12
2022-07-29T05:50:12.909Z,20.22
2022-07-29T05:52:59.122Z,20.33
2022-07-29T05:55:45.208Z,20.50
2022-07-29T05:58:31.156Z,20.67
2022-07-29T06:01:17.564Z,20.83
2022-07-29T06:04:03.893Z,21.02
2022-07-29T06:06:50.395Z,21.18
2022-07-29T06:09:36.686Z,21.32
2022-07-29T06:12:23.148Z,21.40
2022-07-29T06:15:10.212Z,21.55
2022-07-29T06:17:59.940Z,21.71
2022-07-29T06:20:47.277Z,21.82
2022-07-29T06:23:33.656Z,21.96
2022-07-29T06:26:30.253Z,21.99
2022-07-29T06:29:17.654Z,21.97
2022-07-29T06:32:04.439Z,22.03
2022-07-29T06:34:50.732Z,22.18
2022-07-29T06:37:37.946Z,22.20
2022-07-29T06:40:43.995Z,22.27
2022-07-29T06:43:34.278Z,22.51
2022-07-29T06:46:22.465Z,22.71
2022-07-29T06:49:10.491Z,22.92
2022-07-29T06:51:57.779Z,23.17
2022-07-29T06:54:48.522Z,23.51
2022-07-29T06:57:35.750Z,23.79
2022-07-29T07:00:23.351Z,24.08
2022-07-29T07:03:09.760Z,24.30
2022-07-29T07:05:56.285Z,24.39
2022-07-29T07:08:42.611Z,24.55
2022-07-29T07:11:29.112Z,24.87
2022-07-29T07:14:15.953Z,25.28
2022-07-29T07:17:04.409Z,25.62
2022-07-29T07:19:50.788Z,25.81
2022-07-29T07:22:38.894Z,25.82
2022-07-29T07:25:25.858Z,25.86
2022-07-29T07:28:12.175Z,26.03
2022-07-29T07:30:57.884Z,26.07
2022-07-29T07:33:44.466Z,26.10
2022-07-29T07:36:30.606Z,26.31
2022-07-29T07:39:16.821Z,26.55
2022-07-29T07:42:03.705Z,26.70
2022-07-29T07:45:12.107Z,26.69
2022-07-29T07:47:56.493Z,26.49
2022-07-29T07:50:44.236Z,26.34
2022-07-29T07:53:31.083Z,26.42
2022-07-29T07:56:19.710Z,26.60
2022-07-29T08:05:12.670Z,27.79
2022-07-29T08:08:00.792Z,28.11
2022-07-29T08:10:52.745Z,28.47
2022-07-29T08:13:39.027Z,28.79
2022-07-29T08:16:25.712Z,29.14
2022-07-29T08:19:11.571Z,29.59
2022-07-29T08:21:57.136Z,29.81
2022-07-29T08:24:52.717Z,29.70
2022-07-29T08:27:43.729Z,29.50
2022-07-29T08:30:29.610Z,29.71
2022-07-29T08:33:15.584Z,29.93
2022-07-29T08:36:01.178Z,30.05
2022-07-29T08:38:47.151Z,30.29
2022-07-29T08:41:32.418Z,30.44
2022-07-29T08:44:30.532Z,30.71
2022-07-29T08:47:16.629Z,30.93
2022-07-29T08:50:02.256Z,31.07
2022-07-29T08:52:49.406Z,31.26
2022-07-29T08:55:34.743Z,31.67
2022-07-29T08:58:23.295Z,31.99
2022-07-29T09:01:14.322Z,31.98
2022-07-29T09:04:03.437Z,32.14
2022-07-29T09:06:52.311Z,32.29
2022-07-29T09:09:40.154Z,32.36
2022-07-29T09:12:29.334Z,32.39
2022-07-29T09:15:16.481Z,32.33
2022-07-29T09:18:02.710Z,32.34
2022-07-29T09:21:11.956Z,32.33
2022-07-29T09:24:09.933Z,32.44
2022-07-29T09:26:56.918Z,32.93
2022-07-29T09:29:44.973Z,32.90
2022-07-29T09:32:33.667Z,32.99
2022-07-29T09:35:26.015Z,33.03
2022-07-29T09:38:19.852Z,33.19
2022-07-29T09:41:07.142Z,33.20
2022-07-29T09:44:02.998Z,33.05
2022-07-29T09:46:55.912Z,33.07
2022-07-29T09:49:53.403Z,33.33
2022-07-29T09:52:48.061Z,33.61
2022-07-29T09:55:33.503Z,33.77
2022-07-29T09:58:21.907Z,33.93
2022-07-29T10:01:07.132Z,34.22
2022-07-29T10:03:53.556Z,34.49
2022-07-29T10:07:04.620Z,34.51
2022-07-29T10:09:57.527Z,34.60
2022-07-29T10:12:53.973Z,34.27
2022-07-29T10:15:43.974Z,33.88
2022-07-29T10:18:30.002Z,33.79
2022-07-29T10:21:35.365Z,33.76
2022-07-29T10:24:21.743Z,33.44
2022-07-29T10:27:09.104Z,33.34
2022-07-29T10:29:55.093Z,33.36
2022-07-29T10:32:59.744Z,33.52
2022-07-29T10:36:07.085Z,33.52
2022-07-29T10:39:03.835Z,33.49
2022-07-29T10:42:29.580Z,33.49
2022-07-29T10:45:19.544Z,33.47
2022-07-29T10:48:09.357Z,33.27
2022-07-29T10:51:00.809Z,33.29
2022-07-29T10:53:51.866Z,33.71
2022-07-29T10:56:38.013Z,34.22
2022-07-29T10:59:24.868Z,34.73
2022-07-29T11:02:52.309Z,35.17
2022-07-29T11:05:55.961Z,35.61
2022-07-29T11:08:41.886Z,35.80
2022-07-29T11:11:32.105Z,36.07
2022-07-29T11:14:19.318Z,36.28
2022-07-29T11:17:07.099Z,36.32
2022-07-29T11:20:31.440Z,36.31
2022-07-29T11:23:28.078Z,36.00
2022-07-29T11:26:23.550Z,35.80
2022-07-29T11:29:28.044Z,35.58
2022-07-29T11:32:23.355Z,35.33
2022-07-29T11:35:37.251Z,35.21
2022-07-29T11:38:29.171Z,34.98
2022-07-29T11:41:25.487Z,34.70
2022-07-29T11:44:12.535Z,34.27
2022-07-29T11:47:05.305Z,33.85
2022-07-29T11:49:53.041Z,33.74
2022-07-29T11:52:49.818Z,33.76
2022-07-29T11:55:51.609Z,33.66
2022-07-29T11:58:38.039Z,33.61
2022-07-29T12:01:24.929Z,33.85
2022-07-29T12:04:10.699Z,34.10
2022-07-29T12:07:00.391Z,34.64
2022-07-29T12:09:53.638Z,35.14
2022-07-29T12:12:42.809Z,35.33
2022-07-29T12:15:31.523Z,35.60
2022-07-29T12:18:32.156Z,35.71
2022-07-29T12:21:18.097Z,35.87
2022-07-29T12:24:08.696Z,35.71
2022-07-29T12:26:57.933Z,35.56
2022-07-29T12:29:47.968Z,35.30
2022-07-29T12:32:40.439Z,35.20
2022-07-29T12:35:27.169Z,35.14
2022-07-29T12:38:16.779Z,35.21
2022-07-29T12:41:04.385Z,35.32
2022-07-29T12:43:55.264Z,35.24
2022-07-29T12:46:42.189Z,35.22
2022-07-29T12:49:27.896Z,35.26
2022-07-29T12:52:34.333Z,35.29
2022-07-29T12:55:43.045Z,35.20
2022-07-29T12:58:33.456Z,35.01
2022-07-29T13:01:20.540Z,34.80
2022-07-29T13:04:06.247Z,34.75
2022-07-29T13:07:02.202Z,34.60
2022-07-29T13:09:50.618Z,34.51
2022-07-29T13:12:39.499Z,34.58
2022-07-29T13:15:25.870Z,34.68
2022-07-29T13:18:31.860Z,34.68
2022-07-29T13:21:18.968Z,34.68
2022-07-29T13:24:06.855Z,34.92
2022-07-29T13:26:52.884Z,35.05
2022-07-29T13:29:40.731Z,34.93
2022-07-29T13:32:29.324Z,34.80
2022-07-29T13:35:15.074Z,34.60
2022-07-29T13:38:00.977Z,34.40
2022-07-29T13:40:47.150Z,34.42
2022-07-29T13:43:32.601Z,34.67
2022-07-29T13:46:18.399Z,34.84
2022-07-29T13:49:04.401Z,35.06
2022-07-29T13:51:50.285Z,35.43
2022-07-29T13:54:42.516Z,35.80
2022-07-29T13:57:29.221Z,36.08
2022-07-29T14:00:15.654Z,35.98
2022-07-29T14:03:01.459Z,35.67
2022-07-29T14:05:47.536Z,35.27
2022-07-29T14:08:33.330Z,34.92
2022-07-29T14:11:18.703Z,34.51
2022-07-29T14:14:07.570Z,34.28
2022-07-29T14:16:53.730Z,34.57
2022-07-29T14:19:39.655Z,34.92
2022-07-29T14:22:25.663Z,35.30
2022-07-29T14:25:14.944Z,35.27
2022-07-29T14:28:01.553Z,34.86
2022-07-29T14:30:49.089Z,34.52
2022-07-29T14:33:49.255Z,34.46
2022-07-29T14:36:35.551Z,34.43
2022-07-29T14:39:43.441Z,34.31
2022-07-29T14:42:36.714Z,34.16
2022-07-29T14:45:23.161Z,33.93
2022-07-29T14:48:08.866Z,33.83
2022-07-29T14:50:56.403Z,33.99
2022-07-29T14:53:42.056Z,34.02
2022-07-29T14:56:37.745Z,34.05
2022-07-29T14:59:32.705Z,34.15
2022-07-29T15:02:18.993Z,34.03
2022-07-29T15:05:04.723Z,33.73
2022-07-29T15:07:50.142Z,33.43
2022-07-29T15:10:35.985Z,33.22
2022-07-29T15:13:21.657Z,33.04
2022-07-29T15:16:08.293Z,32.85
2022-07-29T15:18:54.148Z,32.55
2022-07-29T15:21:48.050Z,32.38
2022-07-29T15:24:34.501Z,32.23
2022-07-29T15:27:20.116Z,31.98
2022-07-29T15:30:06.610Z,31.71
2022-07-29T15:32:52.227Z,31.50
2022-07-29T15:35:43.923Z,31.30
2022-07-29T15:38:29.577Z,31.09
2022-07-29T15:41:15.474Z,30.87
2022-07-29T15:44:01.229Z,30.60
2022-07-29T15:47:06.499Z,30.42
2022-07-29T15:49:52.231Z,30.26
2022-07-29T15:52:39.511Z,30.09
2022-07-29T15:55:27.508Z,29.94
2022-07-29T15:58:14.313Z,29.78
2022-07-29T16:01:03.990Z,29.61
2022-07-29T16:03:49.858Z,29.46
2022-07-29T16:06:36.188Z,29.31
2022-07-29T16:09:23.670Z,29.20
2022-07-29T16:12:12.661Z,29.02
2022-07-29T16:15:02.964Z,28.84
2022-07-29T16:17:50.950Z,28.70
2022-07-29T16:20:36.822Z,28.57
2022-07-29T16:23:23.721Z,28.41
2022-07-29T16:26:09.594Z,28.27
2022-07-29T16:28:55.122Z,28.16
2022-07-29T16:31:41.452Z,28.08
2022-07-29T16:34:27.262Z,27.99
2022-07-29T16:37:12.774Z,27.86
2022-07-29T16:39:58.911Z,27.62
2022-07-29T16:42:47.237Z,27.21
2022-07-29T16:45:40.621Z,26.85
2022-07-29T16:48:31.463Z,26.68
2022-07-29T16:51:17.070Z,26.54
2022-07-29T16:54:02.708Z,26.31
2022-07-29T16:56:48.186Z,26.14
2022-07-29T16:59:34.103Z,25.98
2022-07-29T17:02:29.743Z,25.72
2022-07-29T17:05:15.629Z,25.19
2022-07-29T17:08:01.674Z,24.45
2022-07-29T17:10:47.555Z,24.04
2022-07-29T17:13:33.810Z,23.69
2022-07-29T17:16:23.941Z,23.42
2022-07-29T17:19:09.621Z,23.21
2022-07-29T17:22:02.332Z,23.10
2022-07-29T17:24:51.401Z,22.97
2022-07-29T17:27:37.282Z,22.93
2022-07-29T17:30:22.688Z,22.88
2022-07-29T17:33:08.333Z,22.83
2022-07-29T17:36:13.210Z,22.69
2022-07-29T17:39:04.924Z,22.63
2022-07-29T17:41:50.823Z,22.62
2022-07-29T17:44:37.306Z,22.61
2022-07-29T17:47:23.305Z,22.54
2022-07-29T17:50:09.327Z,22.46
2022-07-29T17:52:55.183Z,22.37
2022-07-29T17:55:41.210Z,22.29
2022-07-29T17:58:26.996Z,22.23
2022-07-29T18:01:14.116Z,22.17
2022-07-29T18:04:00.339Z,22.14
2022-07-29T18:06:46.222Z,22.08
2022-07-29T18:09:32.007Z,21.97
2022-07-29T18:12:17.840Z,21.91
2022-07-29T18:15:04.296Z,21.83
2022-07-29T18:17:57.192Z,21.81
2022-07-29T18:20:44.153Z,21.81
2022-07-29T18:23:30.688Z,21.72
2022-07-29T18:26:16.722Z,21.62
2022-07-29T18:29:02.561Z,21.54
2022-07-29T18:31:48.451Z,21.50
2022-07-29T18:34:34.309Z,21.40
2022-07-29T18:37:19.912Z,21.33
2022-07-29T18:40:25.994Z,21.28
2022-07-29T18:43:12.481Z,21.24
2022-07-29T18:45:58.866Z,21.18
2022-07-29T18:48:44.941Z,21.16
2022-07-29T18:51:30.560Z,21.09
2022-07-29T18:54:17.029Z,21.05
2022-07-29T18:57:53.663Z,21.03
2022-07-29T19:00:09.841Z,20.98
2022-07-29T19:02:58.741Z,20.92
2022-07-29T19:05:44.653Z,20.86
2022-07-29T19:08:30.589Z,20.78
2022-07-29T19:11:17.006Z,20.73
2022-07-29T19:14:04.006Z,20.70
2022-07-29T19:16:50.404Z,20.68
2022-07-29T19:19:36.164Z,20.69
2022-07-29T19:22:22.872Z,20.66
2022-07-29T19:25:09.365Z,20.61
2022-07-29T19:27:55.613Z,20.61
2022-07-29T19:30:41.787Z,20.52
2022-07-29T19:33:27.729Z,20.52
2022-07-29T19:36:13.952Z,20.50
2022-07-29T19:39:00.165Z,20.46
2022-07-29T19:41:47.192Z,20.40
2022-07-29T19:44:33.321Z,20.39
2022-07-29T19:47:19.274Z,20.41
2022-07-29T19:50:06.249Z,20.43
2022-07-29T19:52:52.540Z,20.43
2022-07-29T19:55:38.582Z,20.41
2022-07-29T19:58:26.968Z,20.39
2022-07-29T20:01:13.129Z,20.36
2022-07-29T20:03:59.146Z,20.28
2022-07-29T20:06:45.729Z,20.27
2022-07-29T20:09:31.674Z,20.29
2022-07-29T20:12:17.951Z,20.26
2022-07-29T20:15:06.628Z,20.25
2022-07-29T20:17:56.968Z,20.30
2022-07-29T20:20:43.465Z,20.32
2022-07-29T20:23:29.343Z,20.32
2022-07-29T20:26:19.330Z,20.33
2022-07-29T20:29:05.432Z,20.30
2022-07-29T20:31:53.556Z,20.31
2022-07-29T20:34:42.578Z,20.26
2022-07-29T20:37:28.152Z,20.17
2022-07-29T20:40:13.864Z,20.20
2022-07-29T20:43:00.034Z,20.19
2022-07-29T20:45:46.036Z,20.21
2022-07-29T20:48:32.070Z,20.23
2022-07-29T20:51:17.944Z,20.17
2022-07-29T20:54:03.514Z,20.15
2022-07-29T20:56:50.108Z,20.16
2022-07-29T20:59:36.107Z,20.11
2022-07-29T21:02:22.265Z,20.13
2022-07-29T21:05:08.323Z,20.10
2022-07-29T21:07:57.851Z,20.05
2022-07-29T21:10:44.077Z,19.98
2022-07-29T21:13:30.530Z,19.92
2022-07-29T21:16:18.632Z,19.90
2022-07-29T21:19:04.561Z,19.88
2022-07-29T21:21:50.511Z,19.86
2022-07-29T21:24:36.455Z,19.84
2022-07-29T21:27:40.674Z,19.87
2022-07-29T21:30:26.611Z,19.89
2022-07-29T21:33:12.705Z,19.89
2022-07-29T21:36:20.287Z,19.91
2022-07-29T21:39:06.510Z,19.92
2022-07-29T21:41:52.397Z,19.96
2022-07-29T21:44:40.432Z,19.99
2022-07-29T21:47:26.130Z,20.02
2022-07-29T21:50:11.954Z,20.04
2022-07-29T21:52:58.321Z,20.05
2022-07-29T21:55:46.059Z,20.04
2022-07-29T21:58:34.096Z,20.03
2022-07-29T22:01:19.850Z,19.99
2022-07-29T22:04:06.375Z,19.96
2022-07-29T22:06:51.910Z,19.90
2022-07-29T22:09:37.966Z,19.88
2022-07-29T22:12:23.922Z,19.85
2022-07-29T22:15:14.691Z,19.83
2022-07-29T22:18:01.017Z,19.89
2022-07-29T22:20:47.359Z,19.87
2022-07-29T22:23:32.904Z,19.87
2022-07-29T22:26:18.892Z,19.82
2022-07-29T22:29:06.873Z,19.82
2022-07-29T22:31:53.706Z,19.76
2022-07-29T22:34:39.648Z,19.75
2022-07-29T22:37:25.551Z,19.72
2022-07-29T22:40:11.715Z,19.72
2022-07-29T22:42:58.070Z,19.74
2022-07-29T22:45:43.900Z,19.67
2022-07-29T22:48:30.102Z,19.66
2022-07-29T22:51:16.033Z,19.63
2022-07-29T22:54:02.868Z,19.63
2022-07-29T22:56:49.090Z,19.67
2022-07-29T22:59:35.688Z,19.68
2022-07-29T23:02:21.420Z,19.71
2022-07-29T23:05:08.491Z,19.70
2022-07-29T23:07:54.039Z,19.70
2022-07-29T23:10:40.026Z,19.68
2022-07-29T23:13:25.656Z,19.66
2022-07-29T23:16:12.086Z,19.61
2022-07-29T23:18:58.234Z,19.57
2022-07-29T23:21:44.819Z,19.52
2022-07-29T23:24:30.344Z,19.50
2022-07-29T23:27:16.346Z,19.51
2022-07-29T23:30:02.017Z,19.47
2022-07-29T23:32:48.243Z,19.42
2022-07-29T23:35:34.678Z,19.39
2022-07-29T23:38:20.528Z,19.35
2022-07-29T23:41:09.097Z,19.33
2022-07-29T23:43:55.415Z,19.31
2022-07-29T23:46:41.317Z,19.29
2022-07-29T23:49:27.706Z,19.27
2022-07-29T23:52:13.708Z,19.25
2022-07-29T23:55:36.875Z,19.23
2022-07-29T23:58:05.702Z,19.22
